createdAt,value
2023-05-02T00:02:18.065Z,100353.52
2023-05-02T00:04:51.060Z,100352.82
2023-05-02T00:07:24.170Z,100356.92
2023-05-02T00:09:57.009Z,100364.75
2023-05-02T00:12:30.335Z,100371.08
2023-05-02T00:15:03.181Z,100368.89
2023-05-02T00:17:36.516Z,100374.67
2023-05-02T00:20:11.917Z,100376.48
2023-05-02T00:22:44.696Z,100382.91
2023-05-02T00:25:17.678Z,100383.33
2023-05-02T00:27:51.495Z,100384.73
2023-05-02T00:30:24.442Z,100389.98
2023-05-02T00:32:57.789Z,100388.89
2023-05-02T00:35:30.973Z,100389.40
2023-05-02T00:38:03.816Z,100395.16
2023-05-02T00:40:52.474Z,100390.73
2023-05-02T00:43:26.409Z,100400.75
2023-05-02T00:45:59.189Z,100398.04
2023-05-02T00:48:32.653Z,100402.58
2023-05-02T00:51:06.703Z,100401.50
2023-05-02T00:53:40.502Z,100406.00
2023-05-02T00:56:13.323Z,100413.22
2023-05-02T00:58:46.573Z,100423.64
2023-05-02T01:01:30.285Z,100421.77
2023-05-02T01:04:13.860Z,100421.56
2023-05-02T01:07:02.016Z,100437.39
2023-05-02T01:10:19.247Z,100431.30
2023-05-02T01:13:26.106Z,100428.70
2023-05-02T01:16:01.702Z,100428.70
2023-05-02T01:18:40.228Z,100425.38
2023-05-02T01:21:14.212Z,100433.69
2023-05-02T01:24:10.045Z,100429.27
2023-05-02T01:27:08.424Z,100431.05
2023-05-02T01:29:42.727Z,100431.67
2023-05-02T01:32:17.712Z,100434.25
2023-05-02T01:34:51.080Z,100434.77
2023-05-02T01:37:26.324Z,100443.57
2023-05-02T01:39:59.877Z,100444.25
2023-05-02T01:42:38.164Z,100451.38
2023-05-02T01:45:12.731Z,100445.75
2023-05-02T01:47:47.327Z,100451.75
2023-05-02T01:50:23.860Z,100444.25
2023-05-02T01:52:57.402Z,100448.46
2023-05-02T01:55:31.061Z,100439.61
2023-05-02T01:58:04.605Z,100451.23
2023-05-02T02:00:39.463Z,100455.95
2023-05-02T02:03:12.824Z,100455.64
2023-05-02T02:05:46.444Z,100451.12
2023-05-02T02:08:19.611Z,100456.22
2023-05-02T02:10:57.358Z,100461.64
2023-05-02T02:13:40.560Z,100457.83
2023-05-02T02:16:16.534Z,100461.06
2023-05-02T02:18:49.334Z,100456.75
2023-05-02T02:21:24.127Z,100467.59
2023-05-02T02:23:58.595Z,100463.68
2023-05-02T02:26:32.212Z,100472.11
2023-05-02T02:29:05.897Z,100476.28
2023-05-02T02:31:40.222Z,100472.98
2023-05-02T02:34:13.687Z,100484.39
2023-05-02T02:36:59.410Z,100492.25
2023-05-02T02:40:01.555Z,100486.35
2023-05-02T02:43:06.872Z,100492.13
2023-05-02T02:45:48.700Z,100497.86
2023-05-02T02:48:42.882Z,100501.27
2023-05-02T02:51:28.858Z,100506.89
2023-05-02T02:54:26.977Z,100510.95
2023-05-02T02:57:27.193Z,100514.98
2023-05-02T03:00:10.999Z,100512.28
2023-05-02T03:02:49.055Z,100518.79
2023-05-02T03:05:23.688Z,100522.18
2023-05-02T03:07:57.007Z,100520.72
2023-05-02T03:10:30.850Z,100529.63
2023-05-02T03:13:03.954Z,100536.87
2023-05-02T03:15:58.449Z,100530.36
2023-05-02T03:18:31.069Z,100533.28
2023-05-02T03:21:03.917Z,100539.49
2023-05-02T03:23:37.051Z,100538.70
2023-05-02T03:26:10.008Z,100536.69
2023-05-02T03:28:45.069Z,100548.62
2023-05-02T03:31:19.067Z,100547.66
2023-05-02T03:33:53.466Z,100548.28
2023-05-02T03:36:26.542Z,100552.81
2023-05-02T03:39:00.078Z,100546.00
2023-05-02T03:41:34.774Z,100551.81
2023-05-02T03:44:09.270Z,100553.81
2023-05-02T03:46:42.465Z,100555.19
2023-05-02T03:49:15.913Z,100557.63
2023-05-02T03:51:49.144Z,100554.69
2023-05-02T03:54:24.369Z,100568.73
2023-05-02T03:56:58.408Z,100571.98
2023-05-02T03:59:37.573Z,100572.36
2023-05-02T04:02:11.929Z,100583.02
2023-05-02T04:04:46.667Z,100587.92
2023-05-02T04:07:21.489Z,100584.64
2023-05-02T04:09:59.120Z,100585.16
2023-05-02T04:12:33.153Z,100586.09
2023-05-02T04:15:07.720Z,100589.95
2023-05-02T04:17:41.043Z,100588.27
2023-05-02T04:20:16.220Z,100592.72
2023-05-02T04:22:50.951Z,100599.34
2023-05-02T04:25:23.825Z,100607.63
2023-05-02T04:27:58.931Z,100616.66
2023-05-02T04:30:32.541Z,100617.05
2023-05-02T04:33:07.150Z,100614.94
2023-05-02T04:35:44.819Z,100628.00
2023-05-02T04:38:20.532Z,100628.89
2023-05-02T04:40:55.135Z,100628.52
2023-05-02T04:43:29.993Z,100638.55
2023-05-02T04:46:04.720Z,100640.64
2023-05-02T04:48:41.242Z,100649.60
2023-05-02T04:51:16.953Z,100641.77
2023-05-02T04:53:50.735Z,100640.56
2023-05-02T04:56:24.594Z,100644.77
2023-05-02T04:58:57.439Z,100646.63
2023-05-02T05:01:31.245Z,100654.17
2023-05-02T05:04:05.372Z,100651.86
2023-05-02T05:06:38.738Z,100645.90
2023-05-02T05:09:11.575Z,100651.31
2023-05-02T05:11:46.426Z,100654.86
2023-05-02T05:14:20.263Z,100652.81
2023-05-02T05:16:54.708Z,100661.16
2023-05-02T05:19:28.169Z,100657.91
2023-05-02T05:22:01.414Z,100655.59
2023-05-02T05:24:34.492Z,100651.16
2023-05-02T05:27:07.486Z,100662.12
2023-05-02T05:29:42.297Z,100661.70
2023-05-02T05:32:15.655Z,100664.93
2023-05-02T05:34:54.267Z,100676.78
2023-05-02T05:37:28.886Z,100678.09
2023-05-02T05:40:02.696Z,100676.59
2023-05-02T05:42:36.181Z,100680.30
2023-05-02T05:45:12.620Z,100677.36
2023-05-02T05:47:45.758Z,100675.03
2023-05-02T05:50:19.456Z,100674.09
2023-05-02T05:52:52.703Z,100681.20
2023-05-02T05:55:25.446Z,100682.97
2023-05-02T05:57:59.116Z,100675.97
2023-05-02T06:00:32.569Z,100689.61
2023-05-02T06:03:09.877Z,100693.15
2023-05-02T06:05:42.709Z,100694.37
2023-05-02T06:08:15.662Z,100691.42
2023-05-02T06:10:48.645Z,100690.16
2023-05-02T06:13:21.624Z,100695.86
2023-05-02T06:15:55.508Z,100694.22
2023-05-02T06:18:29.431Z,100688.19
2023-05-02T06:21:07.318Z,100690.57
2023-05-02T06:23:41.405Z,100698.13
2023-05-02T06:26:14.332Z,100712.85
2023-05-02T06:28:47.724Z,100710.33
2023-05-02T06:31:20.648Z,100719.20
2023-05-02T06:33:54.078Z,100714.95
2023-05-02T06:36:27.993Z,100719.56
2023-05-02T06:39:00.518Z,100722.54
2023-05-02T06:41:33.411Z,100725.48
2023-05-02T06:44:06.497Z,100736.32
2023-05-02T06:46:39.702Z,100728.64
2023-05-02T06:49:12.955Z,100725.58
2023-05-02T06:51:45.979Z,100754.33
2023-05-02T06:54:18.988Z,100731.34
2023-05-02T06:56:51.879Z,100735.45
2023-05-02T06:59:24.854Z,100734.70
2023-05-02T07:01:57.971Z,100727.02
2023-05-02T07:04:30.889Z,100742.53
2023-05-02T07:07:04.359Z,100733.42
2023-05-02T07:09:40.425Z,100740.48
2023-05-02T07:12:13.300Z,100753.33
2023-05-02T07:14:47.210Z,100747.38
2023-05-02T07:17:20.135Z,100748.06
2023-05-02T07:19:53.647Z,100741.30
2023-05-02T07:22:26.960Z,100751.16
2023-05-02T07:25:02.731Z,100753.44
2023-05-02T07:27:37.144Z,100756.23
2023-05-02T07:30:10.933Z,100764.19
2023-05-02T07:32:43.971Z,100762.13
2023-05-02T07:35:17.340Z,100764.02
2023-05-02T07:37:50.089Z,100764.70
2023-05-02T07:40:23.627Z,100766.27
2023-05-02T07:42:56.445Z,100762.98
2023-05-02T07:45:29.605Z,100758.50
2023-05-02T07:48:04.242Z,100755.72
2023-05-02T07:50:37.621Z,100755.47
2023-05-02T07:53:11.458Z,100753.52
2023-05-02T07:55:44.466Z,100762.36
2023-05-02T07:58:17.215Z,100748.36
2023-05-02T08:00:50.804Z,100756.78
2023-05-02T08:03:23.779Z,100754.02
2023-05-02T08:05:57.198Z,100739.00
2023-05-02T08:08:30.268Z,100751.48
2023-05-02T08:11:03.260Z,100747.29
2023-05-02T08:13:36.323Z,100738.27
2023-05-02T08:16:09.445Z,100747.78
2023-05-02T08:18:42.553Z,100744.59
2023-05-02T08:21:15.663Z,100751.89
2023-05-02T08:23:48.535Z,100747.45
2023-05-02T08:26:22.129Z,100749.18
2023-05-02T08:28:56.713Z,100750.57
2023-05-02T08:31:29.707Z,100740.58
2023-05-02T08:34:02.600Z,100749.34
2023-05-02T08:36:37.646Z,100744.68
2023-05-02T08:39:10.998Z,100734.73
2023-05-02T08:41:45.274Z,100744.77
2023-05-02T08:44:18.490Z,100740.66
2023-05-02T08:46:52.311Z,100744.09
2023-05-02T08:49:27.572Z,100744.42
2023-05-02T08:52:02.568Z,100745.55
2023-05-02T08:54:35.979Z,100744.75
2023-05-02T08:57:09.086Z,100742.20
2023-05-02T08:59:43.593Z,100745.96
2023-05-02T09:02:21.281Z,100741.45
2023-05-02T09:04:56.614Z,100736.49
2023-05-02T09:07:29.439Z,100741.59
2023-05-02T09:10:02.342Z,100725.23
2023-05-02T09:12:36.979Z,100737.70
2023-05-02T09:15:12.579Z,100740.34
2023-05-02T09:17:47.701Z,100735.58
2023-05-02T09:20:20.402Z,100727.12
2023-05-02T09:22:54.469Z,100725.89
2023-05-02T09:25:27.455Z,100734.58
2023-05-02T09:28:02.198Z,100722.03
2023-05-02T09:30:35.466Z,100726.28
2023-05-02T09:33:08.322Z,100724.00
2023-05-02T09:35:46.033Z,100721.61
2023-05-02T09:38:22.787Z,100723.62
2023-05-02T09:40:58.959Z,100724.47
2023-05-02T09:43:33.743Z,100724.52
2023-05-02T09:46:09.500Z,100722.53
2023-05-02T09:49:00.200Z,100719.17
2023-05-02T09:51:32.978Z,100736.56
2023-05-02T09:54:06.218Z,100717.66
2023-05-02T09:56:58.931Z,100728.59
2023-05-02T09:59:32.236Z,100726.20
2023-05-02T10:02:07.802Z,100718.47
2023-05-02T10:04:42.148Z,100723.30
2023-05-02T10:07:16.354Z,100728.63
2023-05-02T10:09:50.690Z,100722.06
2023-05-02T10:12:24.815Z,100723.77
2023-05-02T10:15:02.006Z,100718.81
2023-05-02T10:17:43.862Z,100724.22
2023-05-02T10:20:28.245Z,100719.61
2023-05-02T10:23:02.959Z,100722.61
2023-05-02T10:25:36.740Z,100725.31
2023-05-02T10:28:09.774Z,100725.70
2023-05-02T10:30:43.388Z,100718.75
2023-05-02T10:33:16.776Z,100725.93
2023-05-02T10:35:49.697Z,100728.93
2023-05-02T10:38:24.962Z,100727.38
2023-05-02T10:41:02.662Z,100731.70
2023-05-02T10:43:38.230Z,100733.59
2023-05-02T10:46:36.816Z,100732.70
2023-05-02T10:49:12.699Z,100724.04
2023-05-02T10:51:46.262Z,100729.09
2023-05-02T10:54:25.957Z,100730.31
2023-05-02T10:57:07.855Z,100730.09
2023-05-02T10:59:46.817Z,100727.89
2023-05-02T11:02:32.926Z,100733.16
2023-05-02T11:05:08.560Z,100731.63
2023-05-02T11:07:41.669Z,100727.55
2023-05-02T11:10:26.635Z,100735.94
2023-05-02T11:13:01.635Z,100736.83
2023-05-02T11:15:45.277Z,100741.80
2023-05-02T11:18:18.570Z,100734.41
2023-05-02T11:20:52.845Z,100727.02
2023-05-02T11:23:26.696Z,100730.60
2023-05-02T11:26:04.782Z,100728.94
2023-05-02T11:28:44.136Z,100727.02
2023-05-02T11:31:34.858Z,100736.86
2023-05-02T11:34:07.748Z,100733.09
2023-05-02T11:36:41.041Z,100722.56
2023-05-02T11:39:22.802Z,100730.17
2023-05-02T11:41:55.880Z,100735.16
2023-05-02T11:44:28.997Z,100734.86
2023-05-02T11:47:04.138Z,100733.19
2023-05-02T11:49:38.036Z,100734.94
2023-05-02T11:52:11.229Z,100731.06
2023-05-02T11:54:44.345Z,100736.53
2023-05-02T11:57:17.754Z,100735.42
2023-05-02T11:59:59.333Z,100735.63
2023-05-02T12:02:40.669Z,100732.57
2023-05-02T12:05:16.845Z,100733.39
2023-05-02T12:07:50.220Z,100737.84
2023-05-02T12:10:23.086Z,100735.27
2023-05-02T12:13:01.060Z,100736.73
2023-05-02T12:15:34.333Z,100736.86
2023-05-02T12:18:07.646Z,100737.69
2023-05-02T12:20:40.521Z,100738.61
2023-05-02T12:23:14.319Z,100738.61
2023-05-02T12:25:47.711Z,100736.80
2023-05-02T12:28:23.068Z,100735.61
2023-05-02T12:30:56.175Z,100740.73
2023-05-02T12:33:28.913Z,100740.18
2023-05-02T12:36:08.622Z,100748.15
2023-05-02T12:38:41.496Z,100749.03
2023-05-02T12:41:14.835Z,100740.77
2023-05-02T12:43:51.501Z,100754.51
2023-05-02T12:46:24.804Z,100744.47
2023-05-02T12:49:08.401Z,100755.07
2023-05-02T12:51:42.388Z,100754.22
2023-05-02T12:54:22.715Z,100749.58
2023-05-02T12:56:55.641Z,100755.05
2023-05-02T12:59:31.128Z,100748.86
2023-05-02T13:02:04.575Z,100745.20
2023-05-02T13:04:42.411Z,100760.11
2023-05-02T13:07:15.449Z,100753.33
2023-05-02T13:09:48.335Z,100752.90
2023-05-02T13:12:21.839Z,100755.23
2023-05-02T13:14:54.721Z,100752.80
2023-05-02T13:17:27.945Z,100760.09
2023-05-02T13:20:02.589Z,100755.45
2023-05-02T13:22:37.804Z,100759.03
2023-05-02T13:25:11.790Z,100761.24
2023-05-02T13:27:46.359Z,100758.02
2023-05-02T13:30:19.455Z,100764.30
2023-05-02T13:32:52.893Z,100758.73
2023-05-02T13:35:26.053Z,100769.05
2023-05-02T13:37:58.922Z,100763.78
2023-05-02T13:40:32.067Z,100760.25
2023-05-02T13:43:05.264Z,100755.61
2023-05-02T13:45:38.060Z,100763.16
2023-05-02T13:48:11.182Z,100760.88
2023-05-02T13:50:44.098Z,100767.04
2023-05-02T13:53:17.048Z,100764.70
2023-05-02T13:55:49.866Z,100771.84
2023-05-02T13:58:22.919Z,100768.75
2023-05-02T14:00:55.850Z,100769.70
2023-05-02T14:03:28.953Z,100771.55
2023-05-02T14:06:02.013Z,100772.94
2023-05-02T14:08:36.032Z,100772.80
2023-05-02T14:11:08.904Z,100772.57
2023-05-02T14:13:41.930Z,100767.86
2023-05-02T14:16:14.604Z,100779.72
2023-05-02T14:18:49.800Z,100780.11
2023-05-02T14:21:22.773Z,100779.09
2023-05-02T14:23:55.703Z,100779.09
2023-05-02T14:26:28.433Z,100780.05
2023-05-02T14:29:01.895Z,100784.99
2023-05-02T14:31:35.034Z,100786.31
2023-05-02T14:34:09.070Z,100782.69
2023-05-02T14:36:43.061Z,100784.30
2023-05-02T14:39:16.304Z,100780.28
2023-05-02T14:41:49.041Z,100785.55
2023-05-02T14:44:21.973Z,100781.83
2023-05-02T14:46:56.875Z,100783.70
2023-05-02T14:49:30.016Z,100793.65
2023-05-02T14:52:03.013Z,100793.09
2023-05-02T14:54:36.251Z,100793.98
2023-05-02T14:57:09.176Z,100796.75
2023-05-02T14:59:42.092Z,100795.09
2023-05-02T15:02:15.319Z,100789.83
2023-05-02T15:04:48.297Z,100801.69
2023-05-02T15:07:21.164Z,100796.67
2023-05-02T15:09:54.043Z,100804.45
2023-05-02T15:12:27.076Z,100806.06
2023-05-02T15:15:00.269Z,100806.34
2023-05-02T15:17:33.380Z,100803.97
2023-05-02T15:20:07.122Z,100806.61
2023-05-02T15:22:40.091Z,100807.03
2023-05-02T15:25:12.977Z,100812.30
2023-05-02T15:27:46.169Z,100814.41
2023-05-02T15:30:20.071Z,100820.48
2023-05-02T15:32:53.644Z,100822.70
2023-05-02T15:35:26.422Z,100823.73
2023-05-02T15:37:59.342Z,100829.98
2023-05-02T15:40:32.223Z,100831.98
2023-05-02T15:43:05.057Z,100831.64
2023-05-02T15:45:39.337Z,100832.22
2023-05-02T15:48:11.283Z,100835.81
2023-05-02T15:50:44.950Z,100845.17
2023-05-02T15:53:19.354Z,100845.56
2023-05-02T15:55:53.543Z,100843.34
2023-05-02T15:58:26.547Z,100836.30
2023-05-02T16:00:59.663Z,100842.93
2023-05-02T16:03:34.717Z,100844.03
2023-05-02T16:06:08.169Z,100842.48
2023-05-02T16:08:41.930Z,100849.81
2023-05-02T16:11:15.179Z,100853.53
2023-05-02T16:13:48.286Z,100859.06
2023-05-02T16:16:21.122Z,100854.39
2023-05-02T16:18:54.228Z,100858.45
2023-05-02T16:21:27.254Z,100855.95
2023-05-02T16:24:00.213Z,100860.90
2023-05-02T16:26:35.573Z,100863.14
2023-05-02T16:29:08.431Z,100871.14
2023-05-02T16:31:43.624Z,100873.03
2023-05-02T16:34:15.908Z,100875.77
2023-05-02T16:36:49.029Z,100874.56
2023-05-02T16:39:22.095Z,100872.94
2023-05-02T16:41:55.381Z,100875.23
2023-05-02T16:44:28.434Z,100873.52
2023-05-02T16:47:01.459Z,100872.81
2023-05-02T16:49:34.488Z,100877.41
2023-05-02T16:52:07.499Z,100878.89
2023-05-02T16:54:40.470Z,100876.80
2023-05-02T16:57:15.311Z,100879.02
2023-05-02T16:59:50.746Z,100873.43
2023-05-02T17:02:23.960Z,100879.27
2023-05-02T17:04:56.907Z,100879.36
2023-05-02T17:07:29.893Z,100882.80
2023-05-02T17:10:04.288Z,100883.52
2023-05-02T17:12:37.805Z,100886.44
2023-05-02T17:15:11.700Z,100883.72
2023-05-02T17:17:45.145Z,100892.97
2023-05-02T17:20:21.004Z,100890.89
2023-05-02T17:22:54.746Z,100890.55
2023-05-02T17:25:27.916Z,100892.02
2023-05-02T17:28:00.817Z,100895.92
2023-05-02T17:30:34.233Z,100899.50
2023-05-02T17:33:07.282Z,100903.91
2023-05-02T17:35:40.685Z,100902.90
2023-05-02T17:38:13.630Z,100905.77
2023-05-02T17:40:46.425Z,100908.11
2023-05-02T17:43:19.450Z,100909.33
2023-05-02T17:45:52.643Z,100910.97
2023-05-02T17:48:25.833Z,100908.08
2023-05-02T17:51:00.593Z,100911.59
2023-05-02T17:53:35.825Z,100917.25
2023-05-02T17:56:08.856Z,100918.37
2023-05-02T17:58:41.964Z,100923.12
2023-05-02T18:01:15.998Z,100923.47
2023-05-02T18:03:49.464Z,100924.64
2023-05-02T18:06:22.558Z,100930.25
2023-05-02T18:08:55.737Z,100933.61
2023-05-02T18:11:31.981Z,100933.23
2023-05-02T18:14:06.506Z,100937.07
2023-05-02T18:16:41.022Z,100936.78
2023-05-02T18:19:13.909Z,100934.71
2023-05-02T18:21:47.121Z,100935.03
2023-05-02T18:24:20.148Z,100937.58
2023-05-02T18:26:53.422Z,100935.09
2023-05-02T18:29:27.134Z,100937.60
2023-05-02T18:32:00.166Z,100942.25
2023-05-02T18:34:36.925Z,100941.38
2023-05-02T18:37:10.105Z,100944.30
2023-05-02T18:39:43.024Z,100943.32
2023-05-02T18:42:16.241Z,100942.83
2023-05-02T18:44:49.219Z,100946.97
2023-05-02T18:47:22.454Z,100942.44
2023-05-02T18:49:59.319Z,100949.47
2023-05-02T18:52:32.983Z,100943.80
2023-05-02T18:55:06.822Z,100947.30
2023-05-02T18:57:40.069Z,100946.52
2023-05-02T19:00:14.403Z,100944.91
2023-05-02T19:02:48.132Z,100946.69
2023-05-02T19:05:21.416Z,100945.90
2023-05-02T19:07:54.293Z,100951.50
2023-05-02T19:10:27.396Z,100949.77
2023-05-02T19:13:00.304Z,100955.09
2023-05-02T19:15:35.548Z,100959.00
2023-05-02T19:18:08.967Z,100959.98
2023-05-02T19:20:41.933Z,100957.06
2023-05-02T19:23:20.060Z,100962.07
2023-05-02T19:25:50.600Z,100968.28
2023-05-02T19:28:23.677Z,100962.33
2023-05-02T19:30:56.440Z,100966.85
2023-05-02T19:33:29.426Z,100966.53
2023-05-02T19:36:02.556Z,100962.18
2023-05-02T19:38:36.715Z,100962.16
2023-05-02T19:41:10.025Z,100965.45
2023-05-02T19:43:42.973Z,100966.84
2023-05-02T19:46:19.514Z,100966.62
2023-05-02T19:48:52.854Z,100970.31
2023-05-02T19:51:29.929Z,100973.38
2023-05-02T19:54:02.991Z,100978.79
2023-05-02T19:56:36.889Z,100978.34
2023-05-02T19:59:09.959Z,100974.62
2023-05-02T20:01:43.003Z,100972.58
2023-05-02T20:04:16.285Z,100973.66
2023-05-02T20:06:49.554Z,100968.00
2023-05-02T20:09:22.485Z,100966.36
2023-05-02T20:11:55.231Z,100972.28
2023-05-02T20:14:28.020Z,100977.80
2023-05-02T20:17:02.152Z,100968.33
2023-05-02T20:19:35.362Z,100977.60
2023-05-02T20:22:08.407Z,100972.57
2023-05-02T20:24:41.605Z,100970.75
2023-05-02T20:27:14.599Z,100966.23
2023-05-02T20:29:47.579Z,100972.64
2023-05-02T20:32:21.782Z,100975.14
2023-05-02T20:34:53.921Z,100972.41
2023-05-02T20:37:26.746Z,100973.72
2023-05-02T20:40:00.493Z,100974.27
2023-05-02T20:42:34.121Z,100970.25
2023-05-02T20:45:08.567Z,100979.67
2023-05-02T20:47:42.223Z,100978.55
2023-05-02T20:50:16.652Z,100987.14
2023-05-02T20:52:49.702Z,100985.84
2023-05-02T20:55:23.311Z,100984.31
2023-05-02T20:57:55.878Z,100987.55
2023-05-02T21:00:28.951Z,100984.86
2023-05-02T21:03:02.274Z,100985.00
2023-05-02T21:05:35.445Z,100976.95
2023-05-02T21:08:08.815Z,100977.14
2023-05-02T21:10:41.562Z,100977.55
2023-05-02T21:13:14.508Z,100969.61
2023-05-02T21:15:47.592Z,100975.60
2023-05-02T21:18:21.376Z,100971.69
2023-05-02T21:20:54.114Z,100980.70
2023-05-02T21:23:27.092Z,100977.26
2023-05-02T21:25:59.925Z,100976.62
2023-05-02T21:28:33.697Z,100977.80
2023-05-02T21:31:08.378Z,100988.11
2023-05-02T21:33:41.978Z,100985.80
2023-05-02T21:36:15.132Z,100982.14
2023-05-02T21:38:47.997Z,100981.02
2023-05-02T21:41:21.140Z,100986.39
2023-05-02T21:43:54.495Z,100993.08
2023-05-02T21:46:27.708Z,100988.41
2023-05-02T21:49:00.802Z,100985.45
2023-05-02T21:51:34.719Z,100983.52
2023-05-02T21:54:07.723Z,100984.98
2023-05-02T21:56:40.789Z,100988.66
2023-05-02T21:59:14.023Z,100989.77
2023-05-02T22:01:46.692Z,100989.01
2023-05-02T22:04:21.104Z,100986.69
2023-05-02T22:06:54.692Z,100986.98
2023-05-02T22:09:29.039Z,100989.83
2023-05-02T22:12:03.169Z,100987.11
2023-05-02T22:14:44.424Z,100983.89
2023-05-02T22:17:10.712Z,100983.25
2023-05-02T22:19:43.533Z,100983.53
2023-05-02T22:22:16.466Z,100996.02
2023-05-02T22:24:51.261Z,101002.81
2023-05-02T22:27:24.014Z,101000.61
2023-05-02T22:29:57.490Z,100993.42
2023-05-02T22:32:30.352Z,101001.63
2023-05-02T22:35:04.196Z,101006.19
2023-05-02T22:37:37.035Z,101001.88
2023-05-02T22:40:11.650Z,101000.17
2023-05-02T22:42:44.591Z,101000.45
2023-05-02T22:45:17.834Z,101004.52
2023-05-02T22:47:52.557Z,101001.03
2023-05-02T22:50:26.487Z,101002.74
2023-05-02T22:52:59.853Z,101004.48
2023-05-02T22:55:32.953Z,100999.45
2023-05-02T22:58:06.089Z,101007.70
2023-05-02T23:00:38.808Z,101008.62
2023-05-02T23:03:12.278Z,101009.44
2023-05-02T23:05:45.256Z,101010.77
2023-05-02T23:08:20.632Z,101006.98
2023-05-02T23:10:53.656Z,101011.94
2023-05-02T23:13:27.358Z,101011.33
2023-05-02T23:16:00.276Z,101016.40
2023-05-02T23:18:33.297Z,101018.88
2023-05-02T23:21:06.692Z,101019.92
2023-05-02T23:23:39.492Z,101019.27
2023-05-02T23:26:13.382Z,101024.25
2023-05-02T23:28:46.258Z,101025.83
2023-05-02T23:31:19.835Z,101025.02
2023-05-02T23:33:52.670Z,101027.25
2023-05-02T23:36:26.042Z,101031.92
2023-05-02T23:38:59.003Z,101033.77
2023-05-02T23:41:32.379Z,101038.17
2023-05-02T23:44:06.242Z,101047.11
2023-05-02T23:46:39.823Z,101043.34
2023-05-02T23:49:12.692Z,101040.49
2023-05-02T23:51:46.455Z,101039.75
2023-05-02T23:54:19.326Z,101042.74
2023-05-02T23:56:52.550Z,101040.39
2023-05-02T23:59:25.720Z,101047.44
